Time;durP1;ratioP1;P1;durP2;ratioP2;P2;SDS_P1;SDS_P2;PMS_P1;PMS_P2;Temp;Humidity;BMP_temperature;BMP_pressure;BME280_temperature;BME280_humidity;BME280_pressure;Samples;Min_cycle;Max_cycle;Signal;HPM_P1;HPM_P2
2023/03/17 00:00:45;;;;;;;8.30;4.57;;;7.00;1.00;;;;;;5060234;28;20474;-56
2023/03/17 00:03:24;;;;;;;7.10;5.30;;;7.20;1.00;;;;;;5043447;28;20805;-55
2023/03/17 00:05:50;;;;;;;5.90;4.90;;;7.00;1.00;;;;;;5050175;28;21051;-53
2023/03/17 00:08:23;;;;;;;7.33;4.80;;;7.00;1.00;;;;;;5049520;28;20451;-56
2023/03/17 00:10:50;;;;;;;8.27;5.10;;;7.00;1.00;;;;;;5049536;28;20456;-55
2023/03/17 00:13:16;;;;;;;8.03;4.80;;;7.00;1.00;;;;;;5049337;28;20454;-57
2023/03/17 00:15:43;;;;;;;5.60;4.87;;;7.00;1.00;;;;;;5049928;28;20536;-56
2023/03/17 00:18:16;;;;;;;7.10;4.80;;;7.00;1.00;;;;;;5051981;28;20457;-54
2023/03/17 00:20:43;;;;;;;5.60;4.47;;;7.00;1.00;;;;;;5051238;28;20529;-55
2023/03/17 00:23:16;;;;;;;8.03;5.53;;;7.00;1.00;;;;;;5048372;28;20956;-56
2023/03/17 00:25:44;;;;;;;8.20;5.33;;;6.90;1.00;;;;;;5051459;28;20453;-56
2023/03/17 00:28:20;;;;;;;6.43;5.10;;;7.00;1.00;;;;;;5059979;28;20533;-56
2023/03/17 00:30:54;;;;;;;6.67;5.30;;;6.90;1.00;;;;;;5053416;28;20523;-55
2023/03/17 00:33:24;;;;;;;7.13;5.30;;;6.90;1.00;;;;;;5046518;28;20461;-55
2023/03/17 00:35:51;;;;;;;9.27;5.33;;;6.80;1.00;;;;;;5055572;28;20481;-55
2023/03/17 00:38:23;;;;;;;7.10;5.13;;;6.90;1.00;;;;;;5049671;28;20458;-55
2023/03/17 00:40:49;;;;;;;7.07;4.77;;;6.80;1.00;;;;;;5068289;28;20536;-56
2023/03/17 00:43:16;;;;;;;7.40;5.20;;;6.80;1.00;;;;;;5054694;28;20451;-56
2023/03/17 00:45:42;;;;;;;6.93;5.27;;;6.80;1.00;;;;;;5047490;28;20442;-57
2023/03/17 00:48:14;;;;;;;9.47;5.70;;;6.90;1.00;;;;;;5051474;28;20458;-55
2023/03/17 00:50:41;;;;;;;11.80;5.67;;;6.80;1.00;;;;;;5046441;28;20833;-55
2023/03/17 00:53:14;;;;;;;7.17;4.43;;;6.80;1.00;;;;;;5051410;28;20451;-54
2023/03/17 00:55:41;;;;;;;8.03;5.23;;;6.80;1.00;;;;;;5048726;28;20825;-54
2023/03/17 00:58:28;;;;;;;8.37;5.00;;;6.90;1.00;;;;;;5049405;28;20507;-54
2023/03/17 01:00:54;;;;;;;8.57;6.00;;;6.90;1.00;;;;;;5057907;28;20591;-56
2023/03/17 01:03:21;;;;;;;5.93;4.80;;;6.80;1.00;;;;;;5046747;28;20447;-55
2023/03/17 01:05:47;;;;;;;9.40;6.53;;;6.80;1.00;;;;;;5048898;28;20496;-56
2023/03/17 01:08:14;;;;;;;9.73;5.20;;;6.70;1.00;;;;;;5049161;28;20466;-54
2023/03/17 01:10:40;;;;;;;8.47;5.23;;;6.70;1.00;;;;;;5049121;28;20455;-54
2023/03/17 01:13:06;;;;;;;7.87;5.40;;;6.70;1.00;;;;;;5047650;28;20482;-55
2023/03/17 01:15:32;;;;;;;8.13;5.70;;;6.70;1.00;;;;;;5051087;28;20517;-56
2023/03/17 01:18:00;;;;;;;8.40;5.53;;;6.60;1.00;;;;;;5057037;28;20953;-56
2023/03/17 01:20:31;;;;;;;7.10;5.40;;;6.70;1.00;;;;;;5049348;28;20458;-56
2023/03/17 01:22:57;;;;;;;8.03;5.33;;;6.60;1.00;;;;;;5052733;28;20443;-56
2023/03/17 01:25:24;;;;;;;10.80;5.23;;;6.60;1.00;;;;;;5046718;28;20464;-55
2023/03/17 01:27:56;;;;;;;11.30;5.20;;;6.60;1.00;;;;;;5046416;28;20455;-55
2023/03/17 01:30:33;;;;;;;5.70;5.10;;;6.60;1.00;;;;;;5061984;28;21068;-55
2023/03/17 01:33:00;;;;;;;7.67;4.73;;;6.60;1.00;;;;;;5047922;28;20461;-54
2023/03/17 01:35:28;;;;;;;6.00;4.20;;;6.60;1.00;;;;;;5047939;28;20557;-56
2023/03/17 01:37:54;;;;;;;7.07;4.90;;;6.70;1.00;;;;;;5047750;28;20454;-54
2023/03/17 01:40:23;;;;;;;8.23;4.73;;;6.60;1.00;;;;;;5049764;28;20451;-54
2023/03/17 01:42:57;;;;;;;7.40;6.23;;;6.60;1.00;;;;;;5050438;28;20447;-56
2023/03/17 01:46:16;;;;;;;6.80;5.57;;;6.60;1.00;;;;;;5047362;28;20510;-54
2023/03/17 01:48:47;;;;;;;7.23;5.00;;;6.70;1.00;;;;;;4983103;28;20459;-56
2023/03/17 01:51:19;;;;;;;6.10;4.50;;;6.60;1.00;;;;;;5041069;28;20547;-56
2023/03/17 01:53:48;;;;;;;6.03;4.50;;;6.70;1.00;;;;;;5050687;28;20478;-56
2023/03/17 01:56:15;;;;;;;6.40;4.83;;;6.70;1.00;;;;;;5045631;28;20475;-54
2023/03/17 01:58:44;;;;;;;7.90;5.23;;;6.70;1.00;;;;;;5053969;28;20452;-54
2023/03/17 02:01:10;;;;;;;8.53;5.90;;;6.70;1.00;;;;;;5056984;28;20912;-55
2023/03/17 02:03:36;;;;;;;8.53;5.17;;;6.70;1.00;;;;;;5044312;28;20508;-53
2023/03/17 02:06:03;;;;;;;8.43;5.13;;;6.70;1.00;;;;;;5042072;28;20446;-55
2023/03/17 02:08:29;;;;;;;5.80;4.67;;;6.60;1.00;;;;;;5047150;28;20585;-54
2023/03/17 02:10:56;;;;;;;9.10;4.93;;;6.70;1.00;;;;;;5054065;28;20473;-54
2023/03/17 02:13:22;;;;;;;7.47;5.10;;;6.80;1.00;;;;;;5053679;28;20240;-55
2023/03/17 02:15:49;;;;;;;5.27;4.60;;;6.70;1.00;;;;;;5047382;28;21073;-55
2023/03/17 02:18:18;;;;;;;4.43;3.80;;;6.70;1.00;;;;;;5053119;28;20450;-54
2023/03/17 02:20:46;;;;;;;6.30;4.70;;;6.70;1.00;;;;;;5049018;28;20505;-54
2023/03/17 02:23:21;;;;;;;5.63;4.20;;;6.80;1.00;;;;;;5049726;28;20500;-54
2023/03/17 02:25:49;;;;;;;7.00;5.43;;;6.70;1.00;;;;;;5048102;28;20944;-54
2023/03/17 02:28:20;;;;;;;10.23;4.33;;;6.70;1.00;;;;;;5047382;28;20948;-55
2023/03/17 02:30:45;;;;;;;5.93;4.30;;;6.80;1.00;;;;;;5046169;28;20461;-53
2023/03/17 02:33:11;;;;;;;5.83;4.23;;;6.80;1.00;;;;;;5047555;28;20417;-54
2023/03/17 02:35:38;;;;;;;5.07;4.13;;;6.80;1.00;;;;;;5046468;28;20302;-55
2023/03/17 02:38:04;;;;;;;6.37;4.43;;;6.90;1.00;;;;;;5051459;28;20196;-54
2023/03/17 02:40:29;;;;;;;5.63;4.23;;;6.90;1.00;;;;;;5049507;28;21076;-54
2023/03/17 02:42:55;;;;;;;5.90;4.60;;;7.30;1.00;;;;;;5047338;28;20203;-54
2023/03/17 02:45:22;;;;;;;5.60;3.67;;;7.00;1.00;;;;;;5055316;28;20267;-54
2023/03/17 02:47:50;;;;;;;6.70;4.20;;;6.90;1.00;;;;;;5046402;28;20181;-55
2023/03/17 02:50:21;;;;;;;7.17;4.40;;;6.90;1.00;;;;;;5053203;28;20965;-56
2023/03/17 02:52:48;;;;;;;4.60;4.13;;;6.90;1.00;;;;;;5047540;28;20439;-54
2023/03/17 02:55:14;;;;;;;7.17;3.80;;;7.00;1.00;;;;;;5046264;28;20563;-56
2023/03/17 02:57:39;;;;;;;6.30;4.10;;;7.00;1.00;;;;;;5045756;28;20459;-55
2023/03/17 03:00:09;;;;;;;7.07;4.30;;;7.00;1.00;;;;;;5047062;28;20184;-55
2023/03/17 03:02:35;;;;;;;7.53;4.80;;;7.00;1.00;;;;;;5044452;28;20195;-55
2023/03/17 03:05:02;;;;;;;5.87;4.70;;;7.00;1.00;;;;;;5052848;28;20960;-54
2023/03/17 03:07:27;;;;;;;7.80;4.93;;;7.00;1.00;;;;;;5044333;28;20466;-56
2023/03/17 03:09:53;;;;;;;4.27;3.87;;;7.00;1.00;;;;;;5043002;28;20944;-55
2023/03/17 03:12:19;;;;;;;8.53;4.43;;;7.00;1.00;;;;;;5047560;28;20561;-55
2023/03/17 03:14:44;;;;;;;4.73;3.70;;;7.00;1.00;;;;;;5063209;28;20187;-53
2023/03/17 03:17:10;;;;;;;7.90;4.43;;;6.90;1.00;;;;;;5053637;28;20658;-52
2023/03/17 03:19:37;;;;;;;5.40;3.93;;;6.90;1.00;;;;;;5050178;28;20204;-54
2023/03/17 03:22:02;;;;;;;5.90;3.90;;;6.90;1.00;;;;;;5051477;28;20291;-54
2023/03/17 03:24:28;;;;;;;6.03;4.23;;;6.90;1.00;;;;;;5052542;28;20535;-55
2023/03/17 03:26:53;;;;;;;6.30;4.47;;;6.90;1.00;;;;;;5052654;28;20192;-54
2023/03/17 03:29:19;;;;;;;6.17;3.77;;;6.90;1.00;;;;;;5051725;28;20228;-55
2023/03/17 03:31:47;;;;;;;5.17;4.07;;;6.80;1.00;;;;;;5048330;28;20200;-54
2023/03/17 03:34:13;;;;;;;9.10;4.40;;;6.90;1.00;;;;;;5050677;28;20189;-55
2023/03/17 03:36:39;;;;;;;8.37;4.50;;;6.80;1.00;;;;;;5050515;28;20506;-55
2023/03/17 03:39:05;;;;;;;9.40;4.50;;;6.80;1.00;;;;;;5052452;28;21017;-54
2023/03/17 03:41:30;;;;;;;7.63;4.33;;;6.80;1.00;;;;;;5048999;28;20180;-53
2023/03/17 03:43:56;;;;;;;5.60;4.00;;;6.70;1.00;;;;;;5048494;28;20550;-55
2023/03/17 03:46:22;;;;;;;5.27;4.00;;;6.80;1.00;;;;;;5050525;28;20658;-54
2023/03/17 03:48:47;;;;;;;6.53;4.60;;;6.70;1.00;;;;;;5051678;28;20526;-55
2023/03/17 03:51:13;;;;;;;5.07;4.23;;;6.80;1.00;;;;;;5048183;28;20465;-56
2023/03/17 03:53:39;;;;;;;8.30;4.50;;;6.80;1.00;;;;;;5049968;28;20258;-56
2023/03/17 03:56:05;;;;;;;5.80;4.07;;;6.70;1.00;;;;;;5051074;28;20243;-54
2023/03/17 03:58:30;;;;;;;7.87;4.73;;;6.80;1.00;;;;;;5047694;28;20479;-54
2023/03/17 04:00:56;;;;;;;4.83;4.33;;;6.70;1.00;;;;;;5051250;28;20474;-54
2023/03/17 04:03:22;;;;;;;5.07;4.10;;;6.70;1.00;;;;;;5038528;28;20219;-56
2023/03/17 04:05:47;;;;;;;7.40;4.07;;;6.70;1.00;;;;;;5050532;28;20203;-56
2023/03/17 04:08:13;;;;;;;5.97;4.20;;;6.60;1.00;;;;;;5049193;28;20199;-55
2023/03/17 04:10:39;;;;;;;6.40;5.10;;;6.70;1.00;;;;;;5048035;28;20601;-54
2023/03/17 04:13:05;;;;;;;6.60;4.00;;;6.70;1.00;;;;;;5049415;28;20230;-54
2023/03/17 04:15:31;;;;;;;6.53;4.70;;;6.60;1.00;;;;;;5048139;28;20215;-54
2023/03/17 04:17:56;;;;;;;9.60;4.63;;;6.60;1.00;;;;;;5049052;28;20443;-55
2023/03/17 04:20:22;;;;;;;5.83;4.70;;;6.70;1.00;;;;;;5047389;28;20192;-55
2023/03/17 04:22:48;;;;;;;6.43;4.40;;;6.60;1.00;;;;;;5049224;28;20280;-54
2023/03/17 04:25:14;;;;;;;7.00;5.13;;;6.70;1.00;;;;;;5051286;28;20642;-54
2023/03/17 04:27:41;;;;;;;8.73;5.03;;;6.60;1.00;;;;;;5051411;28;20832;-55
2023/03/17 04:30:09;;;;;;;5.67;4.47;;;6.60;1.00;;;;;;5049275;28;20458;-53
2023/03/17 04:32:35;;;;;;;8.40;4.93;;;6.70;1.00;;;;;;5048697;28;20463;-54
2023/03/17 04:35:01;;;;;;;9.00;4.63;;;6.60;1.00;;;;;;5055441;28;20451;-53
2023/03/17 04:37:26;;;;;;;6.17;4.50;;;6.60;1.00;;;;;;5047394;28;20189;-53
2023/03/17 04:39:53;;;;;;;6.40;4.40;;;6.60;1.00;;;;;;5052351;28;20192;-54
2023/03/17 04:42:19;;;;;;;8.00;4.27;;;6.60;1.00;;;;;;5049550;28;20212;-56
2023/03/17 04:44:45;;;;;;;8.10;5.60;;;6.50;1.00;;;;;;5049744;28;20501;-54
2023/03/17 04:47:11;;;;;;;5.93;4.60;;;6.40;1.00;;;;;;5046095;28;20876;-54
2023/03/17 04:49:36;;;;;;;8.07;5.13;;;6.50;1.00;;;;;;5049885;28;20263;-55
2023/03/17 04:52:02;;;;;;;9.70;4.53;;;6.40;1.00;;;;;;5048697;28;20196;-55
2023/03/17 04:54:28;;;;;;;5.87;4.23;;;6.40;1.00;;;;;;5047921;28;20228;-54
2023/03/17 04:56:53;;;;;;;5.40;4.37;;;6.30;1.00;;;;;;5054685;28;20519;-54
2023/03/17 04:59:19;;;;;;;7.93;4.87;;;6.40;1.00;;;;;;5058821;28;20179;-55
2023/03/17 05:01:45;;;;;;;7.93;4.40;;;6.30;1.00;;;;;;5058350;28;20681;-54
2023/03/17 05:04:11;;;;;;;5.83;4.37;;;6.40;1.00;;;;;;5059237;28;20176;-56
2023/03/17 05:06:37;;;;;;;8.00;4.40;;;6.30;1.00;;;;;;5048732;28;20450;-55
2023/03/17 05:09:03;;;;;;;7.67;4.37;;;6.40;1.00;;;;;;5057844;28;20956;-55
2023/03/17 05:11:29;;;;;;;8.70;5.70;;;6.40;1.00;;;;;;5054319;28;20759;-54
2023/03/17 05:13:55;;;;;;;7.30;4.77;;;6.30;1.00;;;;;;5050167;28;20219;-54
2023/03/17 05:16:21;;;;;;;6.70;4.83;;;6.30;1.00;;;;;;5049604;28;20520;-55
2023/03/17 05:18:47;;;;;;;5.70;4.17;;;6.30;1.00;;;;;;5049207;28;20443;-56
2023/03/17 05:21:13;;;;;;;4.70;4.00;;;6.20;1.00;;;;;;5048592;28;20214;-54
2023/03/17 05:23:39;;;;;;;6.87;4.87;;;6.30;1.00;;;;;;5048035;28;20446;-54
2023/03/17 05:26:05;;;;;;;6.33;4.80;;;6.20;1.00;;;;;;5050101;28;20678;-57
2023/03/17 05:28:31;;;;;;;6.77;4.63;;;6.30;1.00;;;;;;5049714;28;20450;-53
2023/03/17 05:30:57;;;;;;;7.07;4.63;;;6.20;1.00;;;;;;5048180;28;20627;-55
2023/03/17 05:33:23;;;;;;;6.50;4.80;;;6.20;1.00;;;;;;5049136;28;20664;-55
2023/03/17 05:35:49;;;;;;;8.57;5.80;;;6.20;1.00;;;;;;5058633;28;20208;-54
2023/03/17 05:38:16;;;;;;;7.20;4.57;;;6.30;1.00;;;;;;5049594;28;20469;-54
2023/03/17 05:40:42;;;;;;;6.87;4.40;;;6.30;1.00;;;;;;5046166;28;21013;-54
2023/03/17 05:43:08;;;;;;;6.37;4.40;;;6.20;1.00;;;;;;5048800;28;20454;-55
2023/03/17 05:45:34;;;;;;;7.10;4.80;;;6.30;1.00;;;;;;5053270;28;20462;-55
2023/03/17 05:48:00;;;;;;;5.97;4.20;;;6.40;1.00;;;;;;5051658;28;20188;-54
2023/03/17 05:50:25;;;;;;;7.60;4.37;;;6.30;1.00;;;;;;5045790;28;20464;-54
2023/03/17 05:52:52;;;;;;;6.03;4.70;;;6.40;1.00;;;;;;5045025;28;20453;-56
2023/03/17 05:55:18;;;;;;;6.43;4.73;;;6.40;1.00;;;;;;5053409;28;21124;-54
2023/03/17 05:57:44;;;;;;;7.80;5.50;;;6.40;1.00;;;;;;5048747;28;20454;-55
2023/03/17 06:00:11;;;;;;;6.90;4.50;;;6.40;1.00;;;;;;5046748;28;20469;-55
2023/03/17 06:02:38;;;;;;;5.53;4.50;;;6.50;1.00;;;;;;5047662;28;20851;-54
2023/03/17 06:05:05;;;;;;;5.53;4.03;;;6.60;1.00;;;;;;5047315;28;20585;-53
2023/03/17 06:07:30;;;;;;;6.90;4.63;;;6.50;1.00;;;;;;5054815;28;20438;-54
2023/03/17 06:09:56;;;;;;;10.27;4.73;;;6.50;1.00;;;;;;5050315;28;20790;-53
2023/03/17 06:12:22;;;;;;;6.00;4.70;;;6.60;1.00;;;;;;5045337;28;20667;-54
2023/03/17 06:14:47;;;;;;;7.47;4.50;;;6.70;1.00;;;;;;5047948;28;20196;-55
2023/03/17 06:17:13;;;;;;;7.83;4.93;;;6.70;1.00;;;;;;5047645;28;20212;-56
2023/03/17 06:19:39;;;;;;;7.20;4.30;;;6.80;1.00;;;;;;5050652;28;20184;-54
2023/03/17 06:22:05;;;;;;;6.77;4.67;;;6.70;1.00;;;;;;5047400;28;20191;-56
2023/03/17 06:24:31;;;;;;;6.63;5.00;;;6.70;1.00;;;;;;5050787;28;20868;-54
2023/03/17 06:26:57;;;;;;;9.90;4.83;;;6.70;1.00;;;;;;5051000;28;20562;-54
2023/03/17 06:29:23;;;;;;;6.90;3.60;;;6.80;1.00;;;;;;5046318;28;20873;-55
2023/03/17 06:31:50;;;;;;;5.23;4.60;;;6.80;1.00;;;;;;5045002;28;20192;-54
2023/03/17 06:34:20;;;;;;;7.10;4.70;;;6.70;1.00;;;;;;5050883;28;20454;-55
2023/03/17 06:36:46;;;;;;;8.17;5.57;;;6.70;1.00;;;;;;5047899;28;20589;-54
2023/03/17 06:39:14;;;;;;;7.43;4.47;;;6.80;1.00;;;;;;5044305;28;20442;-54
2023/03/17 06:41:40;;;;;;;7.67;5.00;;;6.80;1.00;;;;;;5043653;28;20529;-55
2023/03/17 06:44:07;;;;;;;7.77;4.40;;;6.90;1.00;;;;;;5044745;28;20534;-56
2023/03/17 06:46:33;;;;;;;6.60;4.20;;;7.00;1.00;;;;;;5045901;28;20207;-55
2023/03/17 06:49:00;;;;;;;6.50;4.57;;;7.10;1.00;;;;;;5045469;28;21001;-54
2023/03/17 06:51:26;;;;;;;6.47;4.83;;;7.20;1.00;;;;;;5047335;28;20500;-54
2023/03/17 06:53:51;;;;;;;6.67;4.27;;;7.30;1.00;;;;;;5045378;28;20474;-53
2023/03/17 06:56:17;;;;;;;7.03;4.87;;;7.30;1.00;;;;;;5045872;28;20553;-55
2023/03/17 06:58:44;;;;;;;4.93;3.73;;;7.40;1.00;;;;;;5051219;28;20709;-54
2023/03/17 07:01:10;;;;;;;5.60;3.90;;;7.50;1.00;;;;;;5047381;28;20192;-54
2023/03/17 07:03:36;;;;;;;7.17;4.10;;;7.70;1.00;;;;;;5044944;28;20461;-53
2023/03/17 07:06:02;;;;;;;4.80;4.17;;;7.90;1.00;;;;;;5046519;28;20458;-54
2023/03/17 07:08:29;;;;;;;5.10;3.67;;;8.00;1.00;;;;;;5047530;28;20184;-55
2023/03/17 07:10:56;;;;;;;5.10;3.97;;;8.00;1.00;;;;;;5047822;28;20207;-55
2023/03/17 07:13:22;;;;;;;7.60;5.10;;;8.10;1.00;;;;;;5045570;28;20879;-54
2023/03/17 07:15:49;;;;;;;15.73;5.30;;;8.20;1.00;;;;;;5045214;28;20984;-53
2023/03/17 07:18:16;;;;;;;6.90;4.60;;;8.20;1.00;;;;;;5045269;28;20439;-54
2023/03/17 07:20:42;;;;;;;5.73;4.30;;;8.30;1.00;;;;;;5046148;28;20475;-54
2023/03/17 07:23:14;;;;;;;6.30;4.07;;;8.40;1.00;;;;;;5045890;28;20446;-55
2023/03/17 07:25:42;;;;;;;7.30;4.33;;;8.50;1.00;;;;;;5048520;28;20434;-56
2023/03/17 07:28:08;;;;;;;6.23;4.37;;;8.70;1.00;;;;;;5048413;28;20447;-55
2023/03/17 07:30:34;;;;;;;6.07;4.23;;;8.80;1.00;;;;;;5044753;28;20443;-56
2023/03/17 07:33:01;;;;;;;5.50;3.73;;;9.00;1.00;;;;;;5051205;28;20421;-55
2023/03/17 07:35:27;;;;;;;10.30;4.80;;;9.00;1.00;;;;;;5043188;28;20496;-57
2023/03/17 07:37:53;;;;;;;10.93;4.60;;;9.10;1.00;;;;;;5043409;28;20485;-54
2023/03/17 07:40:20;;;;;;;4.77;4.13;;;9.20;1.00;;;;;;5047095;28;20989;-54
2023/03/17 07:42:45;;;;;;;7.97;4.50;;;9.10;1.00;;;;;;5046317;28;20237;-54
2023/03/17 07:45:11;;;;;;;7.53;4.37;;;8.90;1.00;;;;;;5048184;28;20435;-56
2023/03/17 07:47:38;;;;;;;6.43;4.37;;;8.90;1.00;;;;;;5045373;28;20223;-54
2023/03/17 07:50:04;;;;;;;7.10;3.80;;;8.90;1.00;;;;;;5047469;28;20450;-55
2023/03/17 07:52:30;;;;;;;5.60;4.20;;;8.80;1.00;;;;;;5047192;28;20543;-56
2023/03/17 07:54:57;;;;;;;5.10;4.33;;;8.80;1.00;;;;;;5044685;28;20581;-53
2023/03/17 07:57:23;;;;;;;9.47;4.70;;;8.80;1.00;;;;;;5047858;28;20438;-56
2023/03/17 07:59:49;;;;;;;5.00;4.00;;;8.70;1.00;;;;;;5046633;28;20446;-55
2023/03/17 08:02:16;;;;;;;8.33;4.60;;;8.70;1.00;;;;;;5048935;28;20537;-55
2023/03/17 08:04:43;;;;;;;6.33;4.80;;;8.60;1.00;;;;;;5047241;28;21664;-54
2023/03/17 08:07:09;;;;;;;4.40;3.60;;;8.70;1.00;;;;;;5050723;28;21017;-54
2023/03/17 08:09:36;;;;;;;6.77;5.10;;;8.70;1.00;;;;;;5048670;28;20923;-55
2023/03/17 08:12:02;;;;;;;8.13;3.70;;;8.80;1.00;;;;;;5050411;28;20447;-53
2023/03/17 08:14:29;;;;;;;6.30;4.97;;;8.80;1.00;;;;;;5049104;28;20450;-56
2023/03/17 08:16:55;;;;;;;4.50;3.73;;;9.00;1.00;;;;;;5052428;28;20523;-55
2023/03/17 08:19:21;;;;;;;5.77;4.83;;;9.20;1.00;;;;;;5051449;28;20443;-53
2023/03/17 08:21:47;;;;;;;4.80;4.20;;;9.40;1.00;;;;;;5052323;28;20454;-56
2023/03/17 08:24:13;;;;;;;5.67;3.83;;;9.60;1.00;;;;;;5049048;28;20509;-56
2023/03/17 08:26:38;;;;;;;5.90;4.03;;;9.70;1.00;;;;;;5059250;28;20541;-54
2023/03/17 08:29:04;;;;;;;5.33;4.07;;;9.90;1.00;;;;;;5050773;28;20715;-54
2023/03/17 08:31:32;;;;;;;11.53;4.90;;;9.90;1.00;;;;;;5057286;28;20210;-55
2023/03/17 08:33:58;;;;;;;4.30;3.50;;;10.00;1.00;;;;;;5051012;28;20268;-54
2023/03/17 08:36:25;;;;;;;8.33;4.47;;;10.00;1.00;;;;;;5051903;28;20561;-54
2023/03/17 08:38:51;;;;;;;5.33;4.83;;;10.00;1.00;;;;;;5046804;28;20930;-55
2023/03/17 08:41:19;;;;;;;5.80;4.70;;;10.10;1.00;;;;;;5046609;28;20439;-54
2023/03/17 08:43:47;;;;;;;6.07;4.07;;;10.20;1.00;;;;;;5048593;28;22336;-54
2023/03/17 08:46:30;;;;;;;4.70;4.20;;;10.40;1.00;;;;;;5064954;28;20450;-55
2023/03/17 08:48:57;;;;;;;4.13;3.50;;;10.50;1.00;;;;;;5047332;28;20935;-55
2023/03/17 08:51:25;;;;;;;4.97;4.20;;;10.30;1.00;;;;;;5048336;28;20425;-55
2023/03/17 08:53:52;;;;;;;9.10;4.57;;;10.30;1.00;;;;;;5050407;28;20463;-56
2023/03/17 08:56:19;;;;;;;5.07;3.90;;;10.50;1.00;;;;;;5053590;28;20461;-57
2023/03/17 08:58:45;;;;;;;7.77;4.17;;;10.60;1.00;;;;;;5047861;28;20553;-55
2023/03/17 09:01:11;;;;;;;7.97;4.10;;;10.60;1.00;;;;;;5041455;28;20447;-54
2023/03/17 09:03:39;;;;;;;4.47;4.07;;;10.60;1.00;;;;;;5041620;28;20461;-55
2023/03/17 09:06:06;;;;;;;5.57;4.13;;;10.50;1.00;;;;;;5042685;28;20288;-55
2023/03/17 09:08:33;;;;;;;5.30;3.33;;;10.50;1.00;;;;;;5054675;28;20451;-53
2023/03/17 09:11:01;;;;;;;5.60;4.17;;;10.70;1.00;;;;;;5060764;28;20565;-55
2023/03/17 09:13:27;;;;;;;7.80;4.73;;;10.70;1.00;;;;;;5040082;28;20451;-54
2023/03/17 09:15:53;;;;;;;7.10;4.00;;;10.90;1.00;;;;;;5041155;28;20470;-55
2023/03/17 09:18:18;;;;;;;9.60;4.27;;;11.00;1.00;;;;;;5047034;28;20446;-55
2023/03/17 09:20:45;;;;;;;6.93;4.63;;;11.10;1.00;;;;;;5046835;28;20191;-53
2023/03/17 09:23:12;;;;;;;6.70;4.30;;;11.20;1.00;;;;;;5044787;28;20193;-55
2023/03/17 09:25:38;;;;;;;7.43;4.30;;;11.40;1.00;;;;;;5058264;28;20492;-54
2023/03/17 09:28:06;;;;;;;4.87;3.67;;;11.40;1.00;;;;;;5048870;28;21398;-56
2023/03/17 09:30:32;;;;;;;6.90;3.50;;;11.60;1.00;;;;;;5052837;28;20451;-54
2023/03/17 09:32:59;;;;;;;8.70;3.73;;;11.80;1.00;;;;;;5045061;28;20461;-54
2023/03/17 09:35:26;;;;;;;6.47;5.17;;;11.80;1.00;;;;;;5042178;28;20861;-54
2023/03/17 09:37:52;;;;;;;9.40;4.47;;;11.90;1.00;;;;;;5047436;28;20446;-54
2023/03/17 09:40:21;;;;;;;8.90;5.30;;;11.80;1.00;;;;;;5056521;28;20420;-55
2023/03/17 09:42:52;;;;;;;8.40;4.17;;;12.00;1.00;;;;;;5049021;28;20447;-54
2023/03/17 09:45:37;;;;;;;3.93;3.20;;;12.00;1.00;;;;;;5054068;28;20446;-54
2023/03/17 09:48:37;;;;;;;4.83;3.50;;;12.10;1.00;;;;;;5046123;28;20517;-54
2023/03/17 09:51:07;;;;;;;5.50;3.60;;;12.10;1.00;;;;;;5036077;28;20446;-56
2023/03/17 09:53:45;;;;;;;11.97;4.60;;;12.20;1.00;;;;;;5048540;28;20479;-53
2023/03/17 09:56:14;;;;;;;9.53;4.00;;;12.40;1.00;;;;;;5050465;28;20466;-55
2023/03/17 09:58:45;;;;;;;6.03;5.00;;;12.60;1.00;;;;;;5048295;28;20453;-53
2023/03/17 10:01:12;;;;;;;6.00;3.43;;;12.70;1.00;;;;;;5061526;28;20447;-54
2023/03/17 10:03:38;;;;;;;5.47;3.93;;;12.70;1.00;;;;;;5051429;28;20438;-54
2023/03/17 10:06:14;;;;;;;11.20;4.27;;;12.70;1.00;;;;;;5054247;28;20470;-56
2023/03/17 10:08:50;;;;;;;7.50;4.60;;;12.80;1.00;;;;;;5065303;28;20553;-56
2023/03/17 10:11:32;;;;;;;7.50;4.07;;;12.80;1.00;;;;;;5061952;28;20795;-54
2023/03/17 10:14:29;;;;;;;4.50;4.10;;;12.80;1.00;;;;;;5068845;28;20438;-55
2023/03/17 10:17:24;;;;;;;4.83;4.00;;;12.90;1.00;;;;;;5057216;28;20933;-55
2023/03/17 10:20:26;;;;;;;7.20;3.40;;;13.10;1.00;;;;;;5053361;28;20425;-54
2023/03/17 10:23:03;;;;;;;5.50;4.03;;;13.10;1.00;;;;;;5061621;28;20520;-57
2023/03/17 10:25:31;;;;;;;4.87;3.93;;;12.90;1.00;;;;;;5063333;28;20438;-55
2023/03/17 10:28:11;;;;;;;6.00;4.00;;;13.00;1.00;;;;;;5048189;28;20422;-56
2023/03/17 10:30:37;;;;;;;5.30;3.83;;;12.90;1.00;;;;;;5054015;28;20438;-54
2023/03/17 10:33:07;;;;;;;8.60;3.83;;;13.10;1.00;;;;;;5051306;28;20446;-55
2023/03/17 10:35:35;;;;;;;4.80;4.07;;;13.20;1.00;;;;;;5047433;28;20462;-55
2023/03/17 10:38:13;;;;;;;5.20;3.57;;;13.20;1.00;;;;;;5049105;28;20993;-55
2023/03/17 10:40:39;;;;;;;6.50;3.60;;;13.30;1.00;;;;;;5049611;28;20858;-56
2023/03/17 10:43:07;;;;;;;5.90;4.10;;;13.40;1.00;;;;;;5049783;28;20634;-54
2023/03/17 10:45:39;;;;;;;6.23;4.33;;;13.60;1.00;;;;;;5049149;28;20303;-56
2023/03/17 10:48:09;;;;;;;6.50;3.80;;;13.70;1.00;;;;;;5048882;28;20485;-54
2023/03/17 10:50:38;;;;;;;5.40;4.60;;;13.60;1.00;;;;;;5049025;28;20417;-55
2023/03/17 10:53:26;;;;;;;6.83;3.87;;;13.70;1.00;;;;;;5046536;28;20443;-55
2023/03/17 10:55:56;;;;;;;5.50;4.30;;;13.90;1.00;;;;;;5049328;28;20469;-56
2023/03/17 10:58:46;;;;;;;6.23;4.17;;;14.00;1.00;;;;;;5049768;28;20878;-56
2023/03/17 11:01:40;;;;;;;6.80;4.10;;;13.90;1.00;;;;;;5056196;28;20844;-55
2023/03/17 11:04:31;;;;;;;5.00;3.83;;;14.00;1.00;;;;;;5040647;28;20963;-56
2023/03/17 11:06:59;;;;;;;5.17;4.20;;;14.10;1.00;;;;;;5038721;28;20447;-54
2023/03/17 11:09:29;;;;;;;4.10;3.53;;;14.20;1.00;;;;;;5049783;28;20434;-55
2023/03/17 11:12:05;;;;;;;4.70;3.93;;;14.20;1.00;;;;;;5052581;28;20932;-53
2023/03/17 11:14:31;;;;;;;6.93;4.10;;;14.20;1.00;;;;;;5057188;28;20448;-55
2023/03/17 11:17:03;;;;;;;5.73;3.87;;;14.30;1.00;;;;;;5064515;28;20611;-55
2023/03/17 11:19:51;;;;;;;5.53;3.90;;;14.40;1.00;;;;;;5058046;28;20470;-53
2023/03/17 11:22:36;;;;;;;6.80;4.53;;;14.50;1.00;;;;;;5048986;28;20405;-56
2023/03/17 11:25:18;;;;;;;4.00;3.43;;;14.50;1.00;;;;;;5049895;28;21032;-55
2023/03/17 11:27:52;;;;;;;4.10;3.70;;;14.50;1.00;;;;;;5048720;28;20434;-55
2023/03/17 11:30:34;;;;;;;5.10;3.63;;;14.80;1.00;;;;;;5048867;28;20520;-54
2023/03/17 11:33:34;;;;;;;4.37;3.90;;;14.80;1.00;;;;;;5050929;28;20439;-54
2023/03/17 11:36:35;;;;;;;10.57;3.77;;;14.80;1.00;;;;;;5052455;28;20441;-55
2023/03/17 11:39:10;;;;;;;5.80;3.80;;;14.80;1.00;;;;;;5063997;28;20454;-55
2023/03/17 11:42:04;;;;;;;6.80;4.53;;;14.90;1.00;;;;;;5072620;28;20423;-55
2023/03/17 11:45:08;;;;;;;6.97;3.90;;;15.00;1.00;;;;;;5065697;28;20558;-56
2023/03/17 11:47:49;;;;;;;5.70;4.20;;;15.20;1.00;;;;;;5063194;28;20955;-55
2023/03/17 11:50:29;;;;;;;5.00;3.47;;;15.40;1.00;;;;;;5052464;28;20430;-55
2023/03/17 11:53:05;;;;;;;6.63;4.33;;;15.40;1.00;;;;;;5054049;28;20409;-57
2023/03/17 11:55:57;;;;;;;7.00;4.33;;;15.30;1.00;;;;;;5052299;28;20458;-55
2023/03/17 11:58:40;;;;;;;4.90;4.20;;;15.20;1.00;;;;;;5047859;28;20453;-55
2023/03/17 12:01:10;;;;;;;4.13;3.50;;;15.20;1.00;;;;;;5048976;28;20519;-55
2023/03/17 12:03:41;;;;;;;8.13;3.93;;;15.30;1.00;;;;;;5050332;28;20430;-55
2023/03/17 12:06:14;;;;;;;4.47;4.00;;;15.50;1.00;;;;;;5052605;28;20438;-54
2023/03/17 12:08:49;;;;;;;6.20;4.07;;;15.50;1.00;;;;;;5058857;28;21058;-55
2023/03/17 12:11:23;;;;;;;5.77;4.77;;;15.40;1.00;;;;;;5051360;28;20437;-55
2023/03/17 12:13:59;;;;;;;5.43;4.50;;;15.40;1.00;;;;;;5050598;28;20914;-56
2023/03/17 12:16:32;;;;;;;7.93;4.50;;;15.40;1.00;;;;;;5065373;28;20551;-56
2023/03/17 12:19:03;;;;;;;6.80;4.80;;;15.30;1.00;;;;;;5068936;28;20922;-55
2023/03/17 12:21:44;;;;;;;8.90;4.23;;;15.20;1.00;;;;;;5070933;28;20437;-55
2023/03/17 12:24:30;;;;;;;4.63;4.23;;;15.10;1.00;;;;;;5071708;28;20950;-55
2023/03/17 12:27:15;;;;;;;8.40;4.40;;;14.50;1.00;;;;;;5059536;28;20480;-54
2023/03/17 12:29:48;;;;;;;4.70;4.30;;;15.30;1.00;;;;;;5046626;28;20509;-55
2023/03/17 12:32:32;;;;;;;6.10;4.67;;;15.40;1.00;;;;;;5048968;28;20549;-55
2023/03/17 12:35:20;;;;;;;6.10;5.10;;;15.40;1.00;;;;;;5049768;28;20819;-55
2023/03/17 12:37:48;;;;;;;8.20;4.73;;;15.40;1.00;;;;;;5039596;28;20940;-54
2023/03/17 12:40:20;;;;;;;8.00;4.90;;;15.40;1.00;;;;;;5049192;28;20450;-55
2023/03/17 12:42:55;;;;;;;7.57;4.60;;;15.50;1.00;;;;;;5057744;28;20988;-57
2023/03/17 12:45:47;;;;;;;6.37;4.90;;;15.50;1.00;;;;;;5057959;28;20450;-55
2023/03/17 12:49:07;;;;;;;4.67;4.20;;;15.50;1.00;;;;;;5045144;28;20534;-54
2023/03/17 12:51:53;;;;;;;5.77;4.60;;;15.50;1.00;;;;;;4983499;28;20428;-55
2023/03/17 12:54:25;;;;;;;5.00;4.50;;;15.50;1.00;;;;;;4982552;28;20540;-55
2023/03/17 12:56:52;;;;;;;5.23;4.30;;;15.60;1.00;;;;;;5029100;28;20471;-56
2023/03/17 12:59:23;;;;;;;5.70;4.67;;;15.60;1.00;;;;;;5051088;28;20545;-55
2023/03/17 13:01:58;;;;;;;6.67;5.50;;;15.50;1.00;;;;;;5055586;28;20505;-54
2023/03/17 13:04:31;;;;;;;5.33;4.73;;;15.40;1.00;;;;;;5058595;28;20445;-54
2023/03/17 13:07:11;;;;;;;5.67;4.80;;;15.30;1.00;;;;;;5047466;28;20533;-55
2023/03/17 13:10:09;;;;;;;9.80;5.40;;;15.30;1.00;;;;;;5042455;28;20443;-55
2023/03/17 13:12:34;;;;;;;8.10;5.30;;;15.20;1.00;;;;;;5050626;28;20438;-55
2023/03/17 13:15:00;;;;;;;8.03;5.27;;;15.20;1.00;;;;;;5048679;28;20451;-55
2023/03/17 13:17:27;;;;;;;7.80;5.90;;;15.10;1.00;;;;;;5054281;28;20211;-56